sensor_id;sensor_type;location;lat;lon;timestamp;pressure;altitude;pressure_sealevel;temperature;humidity
46347;BME280;32057;47.830;19.046;2023-05-16T00:01:09;99768.41;;;11.78;100.00
46347;BME280;32057;47.830;19.046;2023-05-16T00:03:34;99765.81;;;11.76;100.00
46347;BME280;32057;47.830;19.046;2023-05-16T00:06:02;99761.41;;;11.69;100.00
46347;BME280;32057;47.830;19.046;2023-05-16T00:08:28;99755.34;;;11.70;100.00
46347;BME280;32057;47.830;19.046;2023-05-16T00:10:53;99755.38;;;11.76;100.00
46347;BME280;32057;47.830;19.046;2023-05-16T00:13:19;99750.16;;;11.78;100.00
46347;BME280;32057;47.830;19.046;2023-05-16T00:15:53;99747.56;;;11.76;100.00
46347;BME280;32057;47.830;19.046;2023-05-16T00:18:21;99751.91;;;11.74;100.00
46347;BME280;32057;47.830;19.046;2023-05-16T00:20:49;99747.53;;;11.73;100.00
46347;BME280;32057;47.830;19.046;2023-05-16T00:23:16;99740.63;;;11.79;100.00
46347;BME280;32057;47.830;19.046;2023-05-16T00:25:41;99741.50;;;11.79;100.00
46347;BME280;32057;47.830;19.046;2023-05-16T00:28:07;99744.97;;;11.76;100.00
46347;BME280;32057;47.830;19.046;2023-05-16T00:30:33;99738.84;;;11.71;100.00
46347;BME280;32057;47.830;19.046;2023-05-16T00:32:58;99739.72;;;11.73;100.00
46347;BME280;32057;47.830;19.046;2023-05-16T00:35:24;99731.91;;;11.70;100.00
46347;BME280;32057;47.830;19.046;2023-05-16T00:37:49;99728.44;;;11.73;100.00
46347;BME280;32057;47.830;19.046;2023-05-16T00:40:15;99722.31;;;11.69;100.00
46347;BME280;32057;47.830;19.046;2023-05-16T00:42:40;99728.41;;;11.71;100.00
46347;BME280;32057;47.830;19.046;2023-05-16T00:45:06;99724.09;;;11.76;100.00
46347;BME280;32057;47.830;19.046;2023-05-16T00:47:32;99732.81;;;11.79;100.00
46347;BME280;32057;47.830;19.046;2023-05-16T00:49:58;99727.56;;;11.77;100.00
46347;BME280;32057;47.830;19.046;2023-05-16T00:52:23;99731.03;;;11.77;100.00
46347;BME280;32057;47.830;19.046;2023-05-16T00:54:50;99727.59;;;11.82;100.00
46347;BME280;32057;47.830;19.046;2023-05-16T00:57:15;99727.59;;;11.82;100.00
46347;BME280;32057;47.830;19.046;2023-05-16T00:59:41;99733.69;;;11.82;100.00
46347;BME280;32057;47.830;19.046;2023-05-16T01:02:08;99729.34;;;11.83;100.00
46347;BME280;32057;47.830;19.046;2023-05-16T01:04:34;99733.69;;;11.84;100.00
46347;BME280;32057;47.830;19.046;2023-05-16T01:07:01;99739.78;;;11.83;100.00
46347;BME280;32057;47.830;19.046;2023-05-16T01:09:26;99747.59;;;11.83;100.00
46347;BME280;32057;47.830;19.046;2023-05-16T01:12:13;99737.13;;;11.78;100.00
46347;BME280;32057;47.830;19.046;2023-05-16T01:15:07;99744.91;;;11.69;100.00
46347;BME280;32057;47.830;19.046;2023-05-16T01:28:33;99732.75;;;11.69;100.00
46347;BME280;32057;47.830;19.046;2023-05-16T01:30:59;99737.97;;;11.71;100.00
46347;BME280;32057;47.830;19.046;2023-05-16T01:33:24;99725.81;;;11.71;100.00
46347;BME280;32057;47.830;19.046;2023-05-16T01:38:38;99715.41;;;11.74;100.00
46347;BME280;32057;47.830;19.046;2023-05-16T01:43:42;99724.88;;;11.63;100.00
46347;BME280;32057;47.830;19.046;2023-05-16T01:46:12;99725.72;;;11.57;100.00
46347;BME280;32057;47.830;19.046;2023-05-16T01:48:45;99725.72;;;11.59;100.00
46347;BME280;32057;47.830;19.046;2023-05-16T01:51:13;99721.41;;;11.61;100.00
46347;BME280;32057;47.830;19.046;2023-05-16T01:53:38;99715.38;;;11.68;100.00
46347;BME280;32057;47.830;19.046;2023-05-16T01:56:09;99721.47;;;11.73;100.00
46347;BME280;32057;47.830;19.046;2023-05-16T01:58:36;99711.91;;;11.75;100.00
46347;BME280;32057;47.830;19.046;2023-05-16T02:01:03;99709.34;;;11.79;100.00
46347;BME280;32057;47.830;19.046;2023-05-16T02:03:30;99709.34;;;11.77;100.00
46347;BME280;32057;47.830;19.046;2023-05-16T02:05:56;99717.13;;;11.75;100.00
46347;BME280;32057;47.830;19.046;2023-05-16T02:08:23;99726.69;;;11.75;100.00
46347;BME280;32057;47.830;19.046;2023-05-16T02:10:48;99731.91;;;11.75;100.00
46347;BME280;32057;47.830;19.046;2023-05-16T02:13:14;99742.34;;;11.80;100.00
46347;BME280;32057;47.830;19.046;2023-05-16T02:15:39;99736.28;;;11.81;100.00
46347;BME280;32057;47.830;19.046;2023-05-16T02:18:05;99721.53;;;11.83;100.00
46347;BME280;32057;47.830;19.046;2023-05-16T02:20:30;99717.19;;;11.85;100.00
46347;BME280;32057;47.830;19.046;2023-05-16T02:22:55;99702.44;;;11.87;100.00
46347;BME280;32057;47.830;19.046;2023-05-16T02:25:21;99691.13;;;11.88;100.00
46347;BME280;32057;47.830;19.046;2023-05-16T02:27:47;99680.75;;;11.91;100.00
46347;BME280;32057;47.830;19.046;2023-05-16T02:30:13;99686.84;;;11.93;100.00
46347;BME280;32057;47.830;19.046;2023-05-16T02:32:39;99690.31;;;11.89;100.00
46347;BME280;32057;47.830;19.046;2023-05-16T02:35:05;99696.34;;;11.88;100.00
46347;BME280;32057;47.830;19.046;2023-05-16T02:37:32;99699.81;;;11.87;100.00
46347;BME280;32057;47.830;19.046;2023-05-16T02:39:57;99698.94;;;11.85;100.00
46347;BME280;32057;47.830;19.046;2023-05-16T02:42:25;99699.81;;;11.87;100.00
46347;BME280;32057;47.830;19.046;2023-05-16T02:44:51;99692.84;;;11.86;100.00
46347;BME280;32057;47.830;19.046;2023-05-16T02:47:17;99684.16;;;11.84;100.00
46347;BME280;32057;47.830;19.046;2023-05-16T02:49:42;99676.38;;;11.87;100.00
46347;BME280;32057;47.830;19.046;2023-05-16T02:52:07;99672.06;;;11.89;100.00
46347;BME280;32057;47.830;19.046;2023-05-16T02:54:34;99668.56;;;11.90;100.00
46347;BME280;32057;47.830;19.046;2023-05-16T02:56:59;99672.91;;;11.86;100.00
46347;BME280;32057;47.830;19.046;2023-05-16T02:59:25;99674.59;;;11.86;100.00
46347;BME280;32057;47.830;19.046;2023-05-16T03:01:50;99673.72;;;11.81;100.00
46347;BME280;32057;47.830;19.046;2023-05-16T03:04:16;99668.53;;;11.81;100.00
46347;BME280;32057;47.830;19.046;2023-05-16T03:06:42;99668.50;;;11.77;100.00
46347;BME280;32057;47.830;19.046;2023-05-16T03:09:07;99685.84;;;11.72;100.00
46347;BME280;32057;47.830;19.046;2023-05-16T03:11:33;99700.63;;;11.75;100.00
46347;BME280;32057;47.830;19.046;2023-05-16T03:13:59;99698.00;;;11.72;100.00
46347;BME280;32057;47.830;19.046;2023-05-16T03:16:25;99688.44;;;11.74;100.00
46347;BME280;32057;47.830;19.046;2023-05-16T03:18:50;99685.88;;;11.79;100.00
46347;BME280;32057;47.830;19.046;2023-05-16T03:21:16;99688.50;;;11.82;100.00
46347;BME280;32057;47.830;19.046;2023-05-16T03:23:42;99693.66;;;11.74;100.00
46347;BME280;32057;47.830;19.046;2023-05-16T03:26:07;99687.50;;;11.55;100.00
46347;BME280;32057;47.830;19.046;2023-05-16T03:28:33;99703.13;;;11.56;100.00
46347;BME280;32057;47.830;19.046;2023-05-16T03:30:58;99705.78;;;11.63;100.00
46347;BME280;32057;47.830;19.046;2023-05-16T03:33:24;99698.84;;;11.65;100.00
46347;BME280;32057;47.830;19.046;2023-05-16T03:35:50;99696.28;;;11.72;100.00
46347;BME280;32057;47.830;19.046;2023-05-16T03:38:16;99689.31;;;11.73;100.00
46347;BME280;32057;47.830;19.046;2023-05-16T03:40:42;99695.44;;;11.76;100.00
46347;BME280;32057;47.830;19.046;2023-05-16T03:43:07;99690.22;;;11.76;100.00
46347;BME280;32057;47.830;19.046;2023-05-16T03:45:33;99689.34;;;11.77;100.00
46347;BME280;32057;47.830;19.046;2023-05-16T03:47:58;99704.97;;;11.73;100.00
46347;BME280;32057;47.830;19.046;2023-05-16T03:50:24;99708.44;;;11.73;100.00
46347;BME280;32057;47.830;19.046;2023-05-16T03:52:49;99704.13;;;11.79;100.00
46347;BME280;32057;47.830;19.046;2023-05-16T03:55:17;99727.59;;;11.82;100.00
46347;BME280;32057;47.830;19.046;2023-05-16T03:57:42;99720.69;;;11.87;100.00
46347;BME280;32057;47.830;19.046;2023-05-16T04:00:09;99706.78;;;11.88;100.00
46347;BME280;32057;47.830;19.046;2023-05-16T04:02:35;99689.44;;;11.90;100.00
46347;BME280;32057;47.830;19.046;2023-05-16T04:05:00;99690.25;;;11.87;100.00
46347;BME280;32057;47.830;19.046;2023-05-16T04:07:26;99699.78;;;11.84;100.00
46347;BME280;32057;47.830;19.046;2023-05-16T04:09:53;99702.38;;;11.79;100.00
46347;BME280;32057;47.830;19.046;2023-05-16T04:12:19;99704.16;;;11.83;100.00
46347;BME280;32057;47.830;19.046;2023-05-16T04:14:44;99697.22;;;11.85;100.00
46347;BME280;32057;47.830;19.046;2023-05-16T04:17:10;99691.19;;;11.91;100.00
46347;BME280;32057;47.830;19.046;2023-05-16T04:19:36;99693.81;;;11.97;100.00
46347;BME280;32057;47.830;19.046;2023-05-16T04:22:02;99689.50;;;12.05;100.00
46347;BME280;32057;47.830;19.046;2023-05-16T04:24:27;99689.50;;;12.10;100.00
46347;BME280;32057;47.830;19.046;2023-05-16T04:26:53;99712.16;;;12.19;100.00
46347;BME280;32057;47.830;19.046;2023-05-16T04:29:19;99703.50;;;12.23;100.00
46347;BME280;32057;47.830;19.046;2023-05-16T04:31:45;99705.25;;;12.28;100.00
46347;BME280;32057;47.830;19.046;2023-05-16T04:34:11;99700.00;;;12.30;100.00
46347;BME280;32057;47.830;19.046;2023-05-16T04:36:37;99687.88;;;12.35;100.00
46347;BME280;32057;47.830;19.046;2023-05-16T04:39:02;99674.84;;;12.41;100.00
46347;BME280;32057;47.830;19.046;2023-05-16T04:41:28;99689.63;;;12.42;100.00
46347;BME280;32057;47.830;19.046;2023-05-16T04:43:54;99696.59;;;12.43;100.00
46347;BME280;32057;47.830;19.046;2023-05-16T04:46:19;99688.75;;;12.43;100.00
46347;BME280;32057;47.830;19.046;2023-05-16T04:48:45;99692.25;;;12.45;100.00
46347;BME280;32057;47.830;19.046;2023-05-16T04:51:10;99709.63;;;12.43;100.00
46347;BME280;32057;47.830;19.046;2023-05-16T04:53:36;99720.06;;;12.43;100.00
46347;BME280;32057;47.830;19.046;2023-05-16T04:56:01;99720.06;;;12.43;100.00
46347;BME280;32057;47.830;19.046;2023-05-16T04:58:27;99720.94;;;12.42;100.00
46347;BME280;32057;47.830;19.046;2023-05-16T05:00:53;99722.66;;;12.42;100.00
46347;BME280;32057;47.830;19.046;2023-05-16T05:03:19;99725.28;;;12.42;100.00
46347;BME280;32057;47.830;19.046;2023-05-16T05:05:45;99727.91;;;12.43;100.00
46347;BME280;32057;47.830;19.046;2023-05-16T05:08:12;99732.25;;;12.41;100.00
46347;BME280;32057;47.830;19.046;2023-05-16T05:10:37;99721.78;;;12.40;100.00
46347;BME280;32057;47.830;19.046;2023-05-16T05:13:03;99715.72;;;12.39;100.00
46347;BME280;32057;47.830;19.046;2023-05-16T05:15:29;99714.84;;;12.40;100.00
46347;BME280;32057;47.830;19.046;2023-05-16T05:17:55;99703.56;;;12.43;100.00
46347;BME280;32057;47.830;19.046;2023-05-16T05:20:20;99692.25;;;12.48;100.00
46347;BME280;32057;47.830;19.046;2023-05-16T05:22:46;99689.63;;;12.51;100.00
46347;BME280;32057;47.830;19.046;2023-05-16T05:25:11;99702.69;;;12.50;100.00
46347;BME280;32057;47.830;19.046;2023-05-16T05:27:37;99709.63;;;12.43;100.00
46347;BME280;32057;47.830;19.046;2023-05-16T05:30:02;99705.25;;;12.36;100.00
46347;BME280;32057;47.830;19.046;2023-05-16T05:32:28;99707.00;;;12.31;100.00
46347;BME280;32057;47.830;19.046;2023-05-16T05:34:53;99699.13;;;12.28;100.00
46347;BME280;32057;47.830;19.046;2023-05-16T05:37:19;99711.31;;;12.32;100.00
46347;BME280;32057;47.830;19.046;2023-05-16T05:39:45;99719.16;;;12.32;100.00
46347;BME280;32057;47.830;19.046;2023-05-16T05:42:10;99721.78;;;12.35;100.00
46347;BME280;32057;47.830;19.046;2023-05-16T05:44:38;99720.94;;;12.39;100.00
46347;BME280;32057;47.830;19.046;2023-05-16T05:47:05;99725.28;;;12.43;100.00
46347;BME280;32057;47.830;19.046;2023-05-16T05:49:31;99745.31;;;12.44;100.00
46347;BME280;32057;47.830;19.046;2023-05-16T05:51:56;99746.19;;;12.45;100.00
46347;BME280;32057;47.830;19.046;2023-05-16T05:54:22;99754.00;;;12.46;100.00
46347;BME280;32057;47.830;19.046;2023-05-16T05:56:48;99756.63;;;12.49;100.00
46347;BME280;32057;47.830;19.046;2023-05-16T05:59:14;99752.28;;;12.48;100.00
46347;BME280;32057;47.830;19.046;2023-05-16T06:01:39;99755.78;;;12.50;100.00
46347;BME280;32057;47.830;19.046;2023-05-16T06:04:05;99750.53;;;12.52;100.00
46347;BME280;32057;47.830;19.046;2023-05-16T06:06:30;99754.03;;;12.52;100.00
46347;BME280;32057;47.830;19.046;2023-05-16T06:08:57;99767.09;;;12.59;100.00
46347;BME280;32057;47.830;19.046;2023-05-16T06:11:22;99762.75;;;12.64;100.00
46347;BME280;32057;47.830;19.046;2023-05-16T06:13:49;99763.63;;;12.61;100.00
46347;BME280;32057;47.830;19.046;2023-05-16T06:16:15;99761.00;;;12.61;100.00
46347;BME280;32057;47.830;19.046;2023-05-16T06:18:40;99761.00;;;12.60;100.00
46347;BME280;32057;47.830;19.046;2023-05-16T06:21:06;99764.50;;;12.59;100.00
46347;BME280;32057;47.830;19.046;2023-05-16T06:23:32;99751.44;;;12.60;100.00
46347;BME280;32057;47.830;19.046;2023-05-16T06:25:57;99744.47;;;12.64;100.00
46347;BME280;32057;47.830;19.046;2023-05-16T06:28:23;99741.00;;;12.65;100.00
46347;BME280;32057;47.830;19.046;2023-05-16T06:30:49;99724.47;;;12.66;100.00
46347;BME280;32057;47.830;19.046;2023-05-16T06:33:19;99740.13;;;12.63;100.00
46347;BME280;32057;47.830;19.046;2023-05-16T06:35:44;99742.72;;;12.60;100.00
46347;BME280;32057;47.830;19.046;2023-05-16T06:38:09;99734.03;;;12.58;100.00
46347;BME280;32057;47.830;19.046;2023-05-16T06:40:35;99723.56;;;12.56;100.00
46347;BME280;32057;47.830;19.046;2023-05-16T06:43:01;99727.06;;;12.55;100.00
46347;BME280;32057;47.830;19.046;2023-05-16T06:45:27;99727.94;;;12.55;100.00
46347;BME280;32057;47.830;19.046;2023-05-16T06:47:53;99723.56;;;12.50;100.00
46347;BME280;32057;47.830;19.046;2023-05-16T06:50:19;99724.44;;;12.49;100.00
46347;BME280;32057;47.830;19.046;2023-05-16T06:52:45;99720.97;;;12.51;100.00
46347;BME280;32057;47.830;19.046;2023-05-16T06:55:10;99727.06;;;12.50;100.00
46347;BME280;32057;47.830;19.046;2023-05-16T06:57:36;99727.94;;;12.55;100.00
46347;BME280;32057;47.830;19.046;2023-05-16T07:00:02;99721.88;;;12.58;100.00
46347;BME280;32057;47.830;19.046;2023-05-16T07:02:27;99714.03;;;12.58;100.00
46347;BME280;32057;47.830;19.046;2023-05-16T07:04:53;99712.28;;;12.59;100.00
46347;BME280;32057;47.830;19.046;2023-05-16T07:07:19;99714.00;;;12.55;100.00
46347;BME280;32057;47.830;19.046;2023-05-16T07:09:44;99720.97;;;12.58;100.00
46347;BME280;32057;47.830;19.046;2023-05-16T07:12:10;99708.81;;;12.63;100.00
46347;BME280;32057;47.830;19.046;2023-05-16T07:14:35;99701.84;;;12.62;100.00
46347;BME280;32057;47.830;19.046;2023-05-16T07:17:01;99700.13;;;12.62;100.00
46347;BME280;32057;47.830;19.046;2023-05-16T07:19:26;99689.69;;;12.62;100.00
46347;BME280;32057;47.830;19.046;2023-05-16T07:21:51;99694.88;;;12.61;100.00
46347;BME280;32057;47.830;19.046;2023-05-16T07:24:18;99706.22;;;12.63;100.00
46347;BME280;32057;47.830;19.046;2023-05-16T07:26:43;99701.00;;;12.64;100.00
46347;BME280;32057;47.830;19.046;2023-05-16T07:29:09;99709.69;;;12.68;100.00
46347;BME280;32057;47.830;19.046;2023-05-16T07:31:34;99710.56;;;12.73;100.00
46347;BME280;32057;47.830;19.046;2023-05-16T07:34:00;99702.75;;;12.76;100.00
46347;BME280;32057;47.830;19.046;2023-05-16T07:36:25;99705.38;;;12.82;100.00
46347;BME280;32057;47.830;19.046;2023-05-16T07:38:51;99717.53;;;12.89;100.00
46347;BME280;32057;47.830;19.046;2023-05-16T07:41:16;99721.88;;;12.92;100.00
46347;BME280;32057;47.830;19.046;2023-05-16T07:43:41;99714.94;;;12.95;100.00
46347;BME280;32057;47.830;19.046;2023-05-16T07:46:07;99717.53;;;12.95;100.00
46347;BME280;32057;47.830;19.046;2023-05-16T07:48:32;99721.94;;;12.98;100.00
46347;BME280;32057;47.830;19.046;2023-05-16T07:50:58;99725.41;;;13.00;100.00
46347;BME280;32057;47.830;19.046;2023-05-16T07:53:23;99728.00;;;13.02;100.00
46347;BME280;32057;47.830;19.046;2023-05-16T07:55:49;99728.00;;;13.03;100.00
46347;BME280;32057;47.830;19.046;2023-05-16T07:58:14;99734.97;;;13.06;100.00
46347;BME280;32057;47.830;19.046;2023-05-16T08:00:40;99730.59;;;13.08;100.00
46347;BME280;32057;47.830;19.046;2023-05-16T08:03:05;99721.06;;;13.08;100.00
46347;BME280;32057;47.830;19.046;2023-05-16T08:05:31;99722.78;;;13.09;100.00
46347;BME280;32057;47.830;19.046;2023-05-16T08:07:56;99728.88;;;13.07;100.00
46347;BME280;32057;47.830;19.046;2023-05-16T08:10:22;99730.63;;;13.05;100.00
46347;BME280;32057;47.830;19.046;2023-05-16T08:12:48;99735.84;;;13.02;100.00
46347;BME280;32057;47.830;19.046;2023-05-16T08:15:13;99739.34;;;13.02;100.00
46347;BME280;32057;47.830;19.046;2023-05-16T08:17:39;99741.91;;;12.98;100.00
46347;BME280;32057;47.830;19.046;2023-05-16T08:20:05;99742.81;;;12.98;100.00
46347;BME280;32057;47.830;19.046;2023-05-16T08:22:31;99743.66;;;13.02;100.00
46347;BME280;32057;47.830;19.046;2023-05-16T08:24:56;99741.09;;;13.00;100.00
46347;BME280;32057;47.830;19.046;2023-05-16T08:27:23;99741.94;;;13.01;100.00
46347;BME280;32057;47.830;19.046;2023-05-16T08:29:48;99748.91;;;12.99;100.00
46347;BME280;32057;47.830;19.046;2023-05-16T08:32:14;99751.50;;;12.97;100.00
46347;BME280;32057;47.830;19.046;2023-05-16T08:34:40;99743.66;;;12.95;100.00
46347;BME280;32057;47.830;19.046;2023-05-16T08:37:05;99732.34;;;12.92;100.00
46347;BME280;32057;47.830;19.046;2023-05-16T08:39:31;99732.34;;;12.93;100.00
46347;BME280;32057;47.830;19.046;2023-05-16T08:41:56;99724.50;;;12.93;100.00
46347;BME280;32057;47.830;19.046;2023-05-16T08:44:23;99728.88;;;12.94;100.00
46347;BME280;32057;47.830;19.046;2023-05-16T08:46:52;99733.22;;;13.02;100.00
46347;BME280;32057;47.830;19.046;2023-05-16T08:49:18;99744.53;;;13.05;100.00
46347;BME280;32057;47.830;19.046;2023-05-16T08:51:47;99737.59;;;13.03;100.00
46347;BME280;32057;47.830;19.046;2023-05-16T08:54:15;99721.91;;;13.03;100.00
46347;BME280;32057;47.830;19.046;2023-05-16T08:56:41;99730.63;;;13.06;100.00
46347;BME280;32057;47.830;19.046;2023-05-16T08:59:08;99723.66;;;13.08;100.00
46347;BME280;32057;47.830;19.046;2023-05-16T09:01:33;99712.31;;;13.08;100.00
46347;BME280;32057;47.830;19.046;2023-05-16T09:04:00;99714.06;;;13.13;100.00
46347;BME280;32057;47.830;19.046;2023-05-16T09:06:27;99714.94;;;13.15;100.00
46347;BME280;32057;47.830;19.046;2023-05-16T09:08:53;99715.81;;;13.13;100.00
46347;BME280;32057;47.830;19.046;2023-05-16T09:11:19;99705.38;;;13.16;100.00
46347;BME280;32057;47.830;19.046;2023-05-16T09:13:46;99694.06;;;13.19;100.00
46347;BME280;32057;47.830;19.046;2023-05-16T09:16:13;99692.28;;;13.24;100.00
46347;BME280;32057;47.830;19.046;2023-05-16T09:18:42;99694.91;;;13.24;100.00
46347;BME280;32057;47.830;19.046;2023-05-16T09:21:08;99681.00;;;13.29;100.00
46347;BME280;32057;47.830;19.046;2023-05-16T09:23:34;99681.00;;;13.26;100.00
46347;BME280;32057;47.830;19.046;2023-05-16T09:26:01;99678.41;;;13.29;100.00
46347;BME280;32057;47.830;19.046;2023-05-16T09:28:26;99676.66;;;13.33;100.00
46347;BME280;32057;47.830;19.046;2023-05-16T09:30:52;99668.81;;;13.34;100.00
46347;BME280;32057;47.830;19.046;2023-05-16T09:33:21;99660.09;;;13.35;100.00
46347;BME280;32057;47.830;19.046;2023-05-16T09:35:57;99667.06;;;13.37;100.00
46347;BME280;32057;47.830;19.046;2023-05-16T09:38:23;99654.00;;;13.43;100.00
46347;BME280;32057;47.830;19.046;2023-05-16T09:40:49;99654.00;;;13.41;100.00
46347;BME280;32057;47.830;19.046;2023-05-16T09:43:15;99649.63;;;13.51;100.00
46347;BME280;32057;47.830;19.046;2023-05-16T09:45:45;99651.34;;;13.58;100.00
46347;BME280;32057;47.830;19.046;2023-05-16T09:48:12;99653.06;;;13.70;100.00
46347;BME280;32057;47.830;19.046;2023-05-16T09:50:38;99658.25;;;13.81;100.00
46347;BME280;32057;47.830;19.046;2023-05-16T09:53:05;99646.94;;;13.71;100.00
46347;BME280;32057;47.830;19.046;2023-05-16T09:55:31;99653.94;;;13.72;100.00
46347;BME280;32057;47.830;19.046;2023-05-16T09:57:56;99658.25;;;13.82;100.00
46347;BME280;32057;47.830;19.046;2023-05-16T10:00:28;99656.50;;;13.81;100.00
46347;BME280;32057;47.830;19.046;2023-05-16T10:02:56;99646.88;;;13.86;100.00
46347;BME280;32057;47.830;19.046;2023-05-16T10:05:25;99642.53;;;13.90;100.00
46347;BME280;32057;47.830;19.046;2023-05-16T10:07:56;99642.50;;;13.93;100.00
46347;BME280;32057;47.830;19.046;2023-05-16T10:10:22;99629.41;;;13.96;100.00
46347;BME280;32057;47.830;19.046;2023-05-16T10:12:49;99639.03;;;13.94;100.00
46347;BME280;32057;47.830;19.046;2023-05-16T10:15:16;99640.75;;;13.93;100.00
46347;BME280;32057;47.830;19.046;2023-05-16T10:17:44;99639.88;;;13.91;100.00
46347;BME280;32057;47.830;19.046;2023-05-16T10:20:13;99640.78;;;13.89;100.00
46347;BME280;32057;47.830;19.046;2023-05-16T10:22:42;99651.19;;;13.95;100.00
46347;BME280;32057;47.830;19.046;2023-05-16T10:25:16;99636.38;;;13.95;100.00
46347;BME280;32057;47.830;19.046;2023-05-16T10:27:45;99632.91;;;13.98;100.00
46347;BME280;32057;47.830;19.046;2023-05-16T10:30:11;99631.97;;;14.05;100.00
46347;BME280;32057;47.830;19.046;2023-05-16T10:32:38;99644.16;;;14.11;100.00
46347;BME280;32057;47.830;19.046;2023-05-16T10:35:04;99640.63;;;14.13;100.00
46347;BME280;32057;47.830;19.046;2023-05-16T10:37:30;99635.41;;;14.13;100.00
46347;BME280;32057;47.830;19.046;2023-05-16T10:39:58;99635.41;;;14.13;100.00
46347;BME280;32057;47.830;19.046;2023-05-16T10:42:25;99631.06;;;14.14;100.00
46347;BME280;32057;47.830;19.046;2023-05-16T10:44:53;99632.78;;;14.13;100.00
46347;BME280;32057;47.830;19.046;2023-05-16T10:47:20;99638.88;;;14.15;100.00
46347;BME280;32057;47.830;19.046;2023-05-16T10:49:46;99637.16;;;14.14;100.00
46347;BME280;32057;47.830;19.046;2023-05-16T10:52:12;99635.41;;;14.13;100.00
46347;BME280;32057;47.830;19.046;2023-05-16T10:54:42;99631.03;;;14.15;100.00
46347;BME280;32057;47.830;19.046;2023-05-16T10:57:15;99625.81;;;14.20;100.00
46347;BME280;32057;47.830;19.046;2023-05-16T10:59:44;99621.44;;;14.21;100.00
46347;BME280;32057;47.830;19.046;2023-05-16T11:02:39;99619.69;;;14.20;100.00
46347;BME280;32057;47.830;19.046;2023-05-16T11:05:05;99624.91;;;14.20;100.00
46347;BME280;32057;47.830;19.046;2023-05-16T11:07:37;99617.06;;;14.23;100.00
46347;BME280;32057;47.830;19.046;2023-05-16T11:10:10;99616.16;;;14.27;100.00
46347;BME280;32057;47.830;19.046;2023-05-16T11:12:44;99602.16;;;14.31;100.00
46347;BME280;32057;47.830;19.046;2023-05-16T11:15:20;99599.53;;;14.34;100.00
46347;BME280;32057;47.830;19.046;2023-05-16T11:17:46;99597.75;;;14.41;100.00
46347;BME280;32057;47.830;19.046;2023-05-16T11:20:25;99595.13;;;14.42;100.00
46347;BME280;32057;47.830;19.046;2023-05-16T11:25:41;99584.59;;;14.47;100.00
46347;BME280;32057;47.830;19.046;2023-05-16T11:28:07;99585.50;;;14.46;100.00
46347;BME280;32057;47.830;19.046;2023-05-16T11:30:34;99579.38;;;14.48;100.00
46347;BME280;32057;47.830;19.046;2023-05-16T11:33:00;99577.63;;;14.47;100.00
46347;BME280;32057;47.830;19.046;2023-05-16T11:35:25;99568.91;;;14.50;100.00
46347;BME280;32057;47.830;19.046;2023-05-16T11:37:51;99561.84;;;14.53;100.00
46347;BME280;32057;47.830;19.046;2023-05-16T11:40:16;99559.25;;;14.55;100.00
46347;BME280;32057;47.830;19.046;2023-05-16T11:42:44;99557.47;;;14.55;100.00
46347;BME280;32057;47.830;19.046;2023-05-16T11:45:15;99558.34;;;14.61;100.00
46347;BME280;32057;47.830;19.046;2023-05-16T11:47:42;99554.88;;;14.59;100.00
46347;BME280;32057;47.830;19.046;2023-05-16T11:50:19;99551.34;;;14.63;100.00
46347;BME280;32057;47.830;19.046;2023-05-16T11:52:48;99549.59;;;14.65;100.00
46347;BME280;32057;47.830;19.046;2023-05-16T11:55:19;99531.25;;;14.68;100.00
46347;BME280;32057;47.830;19.046;2023-05-16T11:57:44;99548.56;;;14.81;100.00
46347;BME280;32057;47.830;19.046;2023-05-16T12:00:17;99544.09;;;14.89;100.00
46347;BME280;32057;47.830;19.046;2023-05-16T12:02:43;99535.31;;;14.95;100.00
46347;BME280;32057;47.830;19.046;2023-05-16T12:05:09;99530.00;;;15.03;100.00
46347;BME280;32057;47.830;19.046;2023-05-16T12:07:38;99536.03;;;15.09;100.00
46347;BME280;32057;47.830;19.046;2023-05-16T12:10:08;99522.03;;;15.13;100.00
46347;BME280;32057;47.830;19.046;2023-05-16T12:12:35;99518.53;;;15.16;100.00
46347;BME280;32057;47.830;19.046;2023-05-16T12:15:06;99508.88;;;15.18;100.00
46347;BME280;32057;47.830;19.046;2023-05-16T12:17:36;99521.09;;;15.19;100.00
46347;BME280;32057;47.830;19.046;2023-05-16T12:20:03;99524.63;;;15.18;100.00
46347;BME280;32057;47.830;19.046;2023-05-16T12:22:34;99520.25;;;15.17;100.00
46347;BME280;32057;47.830;19.046;2023-05-16T12:25:19;99520.28;;;15.14;100.00
46347;BME280;32057;47.830;19.046;2023-05-16T12:27:45;99514.16;;;15.15;100.00
46347;BME280;32057;47.830;19.046;2023-05-16T12:30:11;99522.00;;;15.18;100.00
46347;BME280;32057;47.830;19.046;2023-05-16T12:32:37;99532.47;;;15.17;100.00
46347;BME280;32057;47.830;19.046;2023-05-16T12:35:03;99535.09;;;15.18;100.00
46347;BME280;32057;47.830;19.046;2023-05-16T12:37:28;99545.53;;;15.21;100.00
46347;BME280;32057;47.830;19.046;2023-05-16T12:39:59;99540.28;;;15.21;100.00
46347;BME280;32057;47.830;19.046;2023-05-16T12:42:26;99536.81;;;15.19;100.00
46347;BME280;32057;47.830;19.046;2023-05-16T12:44:55;99529.84;;;15.20;100.00
46347;BME280;32057;47.830;19.046;2023-05-16T12:47:21;99520.22;;;15.22;100.00
46347;BME280;32057;47.830;19.046;2023-05-16T12:49:47;99525.34;;;15.29;100.00
46347;BME280;32057;47.830;19.046;2023-05-16T12:52:20;99519.22;;;15.29;100.00
46347;BME280;32057;47.830;19.046;2023-05-16T12:54:46;99502.56;;;15.34;100.00
46347;BME280;32057;47.830;19.046;2023-05-16T12:57:12;99510.34;;;15.44;100.00